sensor_id;sensor_type;location;lat;lon;timestamp;P1;durP1;ratioP1;P2;durP2;ratioP2
46719;SDS011;32452;51.382;-0.002;2023-02-28T00:01:50;7.85;;;2.63;;
46719;SDS011;32452;51.382;-0.002;2023-02-28T00:04:35;9.40;;;2.53;;
46719;SDS011;32452;51.382;-0.002;2023-02-28T00:07:21;8.95;;;2.45;;
46719;SDS011;32452;51.382;-0.002;2023-02-28T00:10:07;6.63;;;2.72;;
46719;SDS011;32452;51.382;-0.002;2023-02-28T00:12:58;8.73;;;3.25;;
46719;SDS011;32452;51.382;-0.002;2023-02-28T00:15:58;9.90;;;3.00;;
46719;SDS011;32452;51.382;-0.002;2023-02-28T00:18:46;12.77;;;3.22;;
46719;SDS011;32452;51.382;-0.002;2023-02-28T00:21:34;7.88;;;3.15;;
46719;SDS011;32452;51.382;-0.002;2023-02-28T00:24:20;14.68;;;3.53;;
46719;SDS011;32452;51.382;-0.002;2023-02-28T00:27:05;9.38;;;2.85;;
46719;SDS011;32452;51.382;-0.002;2023-02-28T00:29:51;15.88;;;3.40;;
46719;SDS011;32452;51.382;-0.002;2023-02-28T00:32:39;8.00;;;3.20;;
46719;SDS011;32452;51.382;-0.002;2023-02-28T00:35:24;9.77;;;3.17;;
46719;SDS011;32452;51.382;-0.002;2023-02-28T00:38:10;12.73;;;3.20;;
46719;SDS011;32452;51.382;-0.002;2023-02-28T00:40:56;11.48;;;3.70;;
46719;SDS011;32452;51.382;-0.002;2023-02-28T00:43:41;14.10;;;3.47;;
46719;SDS011;32452;51.382;-0.002;2023-02-28T00:46:27;11.40;;;3.90;;
46719;SDS011;32452;51.382;-0.002;2023-02-28T00:49:13;7.43;;;2.55;;
46719;SDS011;32452;51.382;-0.002;2023-02-28T00:51:58;7.97;;;3.63;;
46719;SDS011;32452;51.382;-0.002;2023-02-28T00:54:44;13.18;;;3.55;;
46719;SDS011;32452;51.382;-0.002;2023-02-28T00:57:29;7.68;;;3.40;;
46719;SDS011;32452;51.382;-0.002;2023-02-28T01:00:15;9.63;;;2.72;;
46719;SDS011;32452;51.382;-0.002;2023-02-28T01:03:01;10.68;;;3.55;;
46719;SDS011;32452;51.382;-0.002;2023-02-28T01:05:47;12.88;;;3.58;;
46719;SDS011;32452;51.382;-0.002;2023-02-28T01:08:32;16.45;;;3.63;;
46719;SDS011;32452;51.382;-0.002;2023-02-28T01:11:18;12.15;;;3.47;;
46719;SDS011;32452;51.382;-0.002;2023-02-28T01:14:04;11.95;;;3.70;;
46719;SDS011;32452;51.382;-0.002;2023-02-28T01:16:49;10.52;;;2.85;;
46719;SDS011;32452;51.382;-0.002;2023-02-28T01:19:36;8.23;;;3.13;;
46719;SDS011;32452;51.382;-0.002;2023-02-28T01:22:21;13.13;;;3.00;;
46719;SDS011;32452;51.382;-0.002;2023-02-28T01:25:07;10.48;;;3.40;;
46719;SDS011;32452;51.382;-0.002;2023-02-28T01:27:53;9.05;;;3.63;;
46719;SDS011;32452;51.382;-0.002;2023-02-28T01:30:39;12.63;;;3.47;;
46719;SDS011;32452;51.382;-0.002;2023-02-28T01:33:24;10.73;;;3.25;;
46719;SDS011;32452;51.382;-0.002;2023-02-28T01:36:12;10.90;;;3.30;;
46719;SDS011;32452;51.382;-0.002;2023-02-28T01:38:59;13.70;;;4.20;;
46719;SDS011;32452;51.382;-0.002;2023-02-28T01:41:44;8.70;;;3.10;;
46719;SDS011;32452;51.382;-0.002;2023-02-28T01:47:43;11.82;;;3.50;;
46719;SDS011;32452;51.382;-0.002;2023-02-28T01:50:31;8.63;;;3.13;;
46719;SDS011;32452;51.382;-0.002;2023-02-28T01:53:23;9.75;;;3.20;;
46719;SDS011;32452;51.382;-0.002;2023-02-28T01:56:17;12.63;;;3.33;;
46719;SDS011;32452;51.382;-0.002;2023-02-28T01:59:05;10.57;;;3.92;;
46719;SDS011;32452;51.382;-0.002;2023-02-28T02:01:51;10.77;;;3.13;;
46719;SDS011;32452;51.382;-0.002;2023-02-28T02:04:39;9.27;;;2.97;;
46719;SDS011;32452;51.382;-0.002;2023-02-28T02:07:35;12.52;;;3.15;;
46719;SDS011;32452;51.382;-0.002;2023-02-28T02:10:40;7.68;;;2.85;;
46719;SDS011;32452;51.382;-0.002;2023-02-28T02:38:38;10.80;;;3.13;;
46719;SDS011;32452;51.382;-0.002;2023-02-28T02:41:34;9.63;;;3.38;;
46719;SDS011;32452;51.382;-0.002;2023-02-28T02:44:35;9.40;;;3.42;;
46719;SDS011;32452;51.382;-0.002;2023-02-28T02:47:26;9.45;;;3.38;;
46719;SDS011;32452;51.382;-0.002;2023-02-28T02:50:17;8.90;;;3.05;;
46719;SDS011;32452;51.382;-0.002;2023-02-28T02:53:08;11.95;;;4.97;;
46719;SDS011;32452;51.382;-0.002;2023-02-28T02:55:57;13.05;;;3.33;;
46719;SDS011;32452;51.382;-0.002;2023-02-28T02:58:44;10.15;;;3.38;;
46719;SDS011;32452;51.382;-0.002;2023-02-28T03:01:32;10.52;;;3.58;;
46719;SDS011;32452;51.382;-0.002;2023-02-28T03:04:21;8.20;;;3.10;;
46719;SDS011;32452;51.382;-0.002;2023-02-28T03:07:08;8.27;;;3.17;;
46719;SDS011;32452;51.382;-0.002;2023-02-28T03:09:55;13.70;;;4.78;;
46719;SDS011;32452;51.382;-0.002;2023-02-28T03:12:45;13.55;;;3.65;;
46719;SDS011;32452;51.382;-0.002;2023-02-28T03:30:45;12.70;;;3.15;;
46719;SDS011;32452;51.382;-0.002;2023-02-28T03:33:44;11.27;;;4.00;;
46719;SDS011;32452;51.382;-0.002;2023-02-28T03:36:41;9.63;;;3.60;;
46719;SDS011;32452;51.382;-0.002;2023-02-28T03:39:39;11.43;;;4.43;;
46719;SDS011;32452;51.382;-0.002;2023-02-28T03:42:29;11.95;;;3.53;;
46719;SDS011;32452;51.382;-0.002;2023-02-28T03:45:23;12.25;;;4.65;;
46719;SDS011;32452;51.382;-0.002;2023-02-28T03:51:02;11.80;;;3.80;;
46719;SDS011;32452;51.382;-0.002;2023-02-28T03:53:52;26.90;;;4.40;;
46719;SDS011;32452;51.382;-0.002;2023-02-28T03:56:47;8.02;;;3.38;;
46719;SDS011;32452;51.382;-0.002;2023-02-28T03:59:53;11.60;;;3.70;;
46719;SDS011;32452;51.382;-0.002;2023-02-28T04:02:43;18.35;;;4.72;;
46719;SDS011;32452;51.382;-0.002;2023-02-28T04:05:29;12.73;;;3.88;;
46719;SDS011;32452;51.382;-0.002;2023-02-28T04:08:16;12.00;;;4.78;;
46719;SDS011;32452;51.382;-0.002;2023-02-28T04:11:06;8.73;;;3.53;;
46719;SDS011;32452;51.382;-0.002;2023-02-28T04:14:00;11.43;;;3.22;;
46719;SDS011;32452;51.382;-0.002;2023-02-28T04:16:50;13.07;;;3.83;;
46719;SDS011;32452;51.382;-0.002;2023-02-28T04:19:38;13.23;;;3.40;;
46719;SDS011;32452;51.382;-0.002;2023-02-28T04:22:23;14.05;;;3.80;;
46719;SDS011;32452;51.382;-0.002;2023-02-28T04:25:11;15.07;;;3.50;;
46719;SDS011;32452;51.382;-0.002;2023-02-28T04:27:57;15.57;;;4.47;;
46719;SDS011;32452;51.382;-0.002;2023-02-28T04:30:42;10.40;;;3.20;;
46719;SDS011;32452;51.382;-0.002;2023-02-28T04:33:28;11.00;;;3.55;;
46719;SDS011;32452;51.382;-0.002;2023-02-28T04:36:13;11.13;;;3.88;;
46719;SDS011;32452;51.382;-0.002;2023-02-28T04:38:59;14.05;;;4.03;;
46719;SDS011;32452;51.382;-0.002;2023-02-28T04:41:45;10.70;;;3.58;;
46719;SDS011;32452;51.382;-0.002;2023-02-28T04:44:31;9.68;;;3.72;;
46719;SDS011;32452;51.382;-0.002;2023-02-28T04:47:16;13.07;;;4.57;;
46719;SDS011;32452;51.382;-0.002;2023-02-28T04:50:02;10.00;;;3.58;;
46719;SDS011;32452;51.382;-0.002;2023-02-28T04:52:48;13.00;;;3.88;;
46719;SDS011;32452;51.382;-0.002;2023-02-28T04:55:33;14.68;;;4.80;;
46719;SDS011;32452;51.382;-0.002;2023-02-28T04:58:19;14.18;;;3.60;;
46719;SDS011;32452;51.382;-0.002;2023-02-28T05:01:15;9.85;;;4.28;;
46719;SDS011;32452;51.382;-0.002;2023-02-28T05:04:06;10.13;;;4.00;;
46719;SDS011;32452;51.382;-0.002;2023-02-28T05:06:53;11.18;;;3.80;;
46719;SDS011;32452;51.382;-0.002;2023-02-28T05:09:38;13.45;;;3.58;;
46719;SDS011;32452;51.382;-0.002;2023-02-28T05:12:23;10.57;;;3.42;;
46719;SDS011;32452;51.382;-0.002;2023-02-28T05:15:13;10.65;;;3.63;;
46719;SDS011;32452;51.382;-0.002;2023-02-28T05:18:00;12.20;;;3.55;;
46719;SDS011;32452;51.382;-0.002;2023-02-28T05:20:45;15.93;;;4.50;;
46719;SDS011;32452;51.382;-0.002;2023-02-28T05:23:31;12.23;;;3.92;;
46719;SDS011;32452;51.382;-0.002;2023-02-28T05:26:17;12.70;;;5.07;;
46719;SDS011;32452;51.382;-0.002;2023-02-28T05:29:03;11.95;;;3.67;;
46719;SDS011;32452;51.382;-0.002;2023-02-28T05:31:48;17.23;;;6.43;;
46719;SDS011;32452;51.382;-0.002;2023-02-28T05:34:34;11.88;;;4.00;;
46719;SDS011;32452;51.382;-0.002;2023-02-28T05:37:21;14.77;;;4.60;;
46719;SDS011;32452;51.382;-0.002;2023-02-28T05:40:07;14.98;;;4.75;;
46719;SDS011;32452;51.382;-0.002;2023-02-28T05:42:56;11.68;;;5.07;;
46719;SDS011;32452;51.382;-0.002;2023-02-28T05:45:42;13.73;;;4.78;;
46719;SDS011;32452;51.382;-0.002;2023-02-28T05:48:27;11.73;;;4.55;;
46719;SDS011;32452;51.382;-0.002;2023-02-28T05:51:13;12.30;;;3.85;;
46719;SDS011;32452;51.382;-0.002;2023-02-28T05:53:59;15.80;;;4.72;;
46719;SDS011;32452;51.382;-0.002;2023-02-28T05:56:46;11.80;;;3.70;;
46719;SDS011;32452;51.382;-0.002;2023-02-28T05:59:31;10.95;;;4.82;;
46719;SDS011;32452;51.382;-0.002;2023-02-28T06:02:17;13.45;;;5.57;;
46719;SDS011;32452;51.382;-0.002;2023-02-28T06:05:02;11.05;;;4.80;;
46719;SDS011;32452;51.382;-0.002;2023-02-28T06:07:48;17.95;;;4.90;;
46719;SDS011;32452;51.382;-0.002;2023-02-28T06:10:34;14.23;;;5.63;;
46719;SDS011;32452;51.382;-0.002;2023-02-28T06:13:20;16.23;;;6.75;;
46719;SDS011;32452;51.382;-0.002;2023-02-28T06:16:05;16.70;;;5.75;;
46719;SDS011;32452;51.382;-0.002;2023-02-28T06:18:52;15.38;;;6.43;;
46719;SDS011;32452;51.382;-0.002;2023-02-28T06:21:37;13.90;;;6.85;;
46719;SDS011;32452;51.382;-0.002;2023-02-28T06:24:23;17.17;;;6.70;;
46719;SDS011;32452;51.382;-0.002;2023-02-28T06:27:13;18.77;;;7.60;;
46719;SDS011;32452;51.382;-0.002;2023-02-28T06:29:58;17.50;;;7.43;;
46719;SDS011;32452;51.382;-0.002;2023-02-28T06:32:44;13.25;;;6.38;;
46719;SDS011;32452;51.382;-0.002;2023-02-28T06:35:29;19.52;;;7.57;;
46719;SDS011;32452;51.382;-0.002;2023-02-28T06:38:15;17.40;;;6.82;;
46719;SDS011;32452;51.382;-0.002;2023-02-28T06:41:01;18.50;;;8.15;;
46719;SDS011;32452;51.382;-0.002;2023-02-28T06:43:47;19.05;;;7.13;;
46719;SDS011;32452;51.382;-0.002;2023-02-28T06:46:33;16.50;;;6.85;;
46719;SDS011;32452;51.382;-0.002;2023-02-28T06:49:18;21.27;;;7.93;;
46719;SDS011;32452;51.382;-0.002;2023-02-28T06:52:04;18.73;;;8.25;;
46719;SDS011;32452;51.382;-0.002;2023-02-28T06:54:49;18.90;;;8.20;;
46719;SDS011;32452;51.382;-0.002;2023-02-28T06:57:44;21.33;;;7.00;;
46719;SDS011;32452;51.382;-0.002;2023-02-28T07:00:30;26.48;;;8.75;;
46719;SDS011;32452;51.382;-0.002;2023-02-28T07:03:16;17.13;;;7.45;;
46719;SDS011;32452;51.382;-0.002;2023-02-28T07:06:02;22.23;;;7.15;;
46719;SDS011;32452;51.382;-0.002;2023-02-28T07:08:49;16.20;;;7.70;;
46719;SDS011;32452;51.382;-0.002;2023-02-28T07:11:36;21.23;;;7.63;;
46719;SDS011;32452;51.382;-0.002;2023-02-28T07:14:22;21.88;;;8.75;;
46719;SDS011;32452;51.382;-0.002;2023-02-28T07:17:08;17.17;;;7.25;;
46719;SDS011;32452;51.382;-0.002;2023-02-28T07:19:56;21.10;;;7.68;;
46719;SDS011;32452;51.382;-0.002;2023-02-28T07:22:42;15.07;;;8.23;;
46719;SDS011;32452;51.382;-0.002;2023-02-28T07:25:27;17.00;;;7.53;;
46719;SDS011;32452;51.382;-0.002;2023-02-28T07:28:13;18.05;;;9.07;;
46719;SDS011;32452;51.382;-0.002;2023-02-28T07:31:06;20.38;;;8.63;;
46719;SDS011;32452;51.382;-0.002;2023-02-28T07:33:52;21.53;;;8.00;;
46719;SDS011;32452;51.382;-0.002;2023-02-28T07:36:38;18.17;;;7.57;;
46719;SDS011;32452;51.382;-0.002;2023-02-28T07:39:24;16.15;;;8.35;;
46719;SDS011;32452;51.382;-0.002;2023-02-28T07:42:10;14.15;;;7.30;;
46719;SDS011;32452;51.382;-0.002;2023-02-28T07:44:57;19.13;;;8.20;;
46719;SDS011;32452;51.382;-0.002;2023-02-28T07:47:44;16.33;;;8.52;;
46719;SDS011;32452;51.382;-0.002;2023-02-28T07:50:30;16.35;;;7.60;;
46719;SDS011;32452;51.382;-0.002;2023-02-28T07:53:16;17.55;;;7.18;;
46719;SDS011;32452;51.382;-0.002;2023-02-28T07:56:02;15.02;;;6.22;;
46719;SDS011;32452;51.382;-0.002;2023-02-28T07:58:48;14.02;;;6.45;;
46719;SDS011;32452;51.382;-0.002;2023-02-28T08:01:33;12.98;;;6.57;;
46719;SDS011;32452;51.382;-0.002;2023-02-28T08:04:20;15.20;;;7.28;;
46719;SDS011;32452;51.382;-0.002;2023-02-28T08:07:05;15.38;;;6.05;;
46719;SDS011;32452;51.382;-0.002;2023-02-28T08:09:51;15.15;;;6.28;;
46719;SDS011;32452;51.382;-0.002;2023-02-28T08:12:36;15.70;;;5.95;;
46719;SDS011;32452;51.382;-0.002;2023-02-28T08:15:22;15.80;;;6.43;;
46719;SDS011;32452;51.382;-0.002;2023-02-28T08:18:07;18.67;;;6.78;;
46719;SDS011;32452;51.382;-0.002;2023-02-28T08:20:53;16.77;;;5.63;;
46719;SDS011;32452;51.382;-0.002;2023-02-28T08:23:39;11.05;;;5.07;;
46719;SDS011;32452;51.382;-0.002;2023-02-28T08:26:24;12.35;;;5.13;;
46719;SDS011;32452;51.382;-0.002;2023-02-28T08:29:10;11.88;;;4.90;;
46719;SDS011;32452;51.382;-0.002;2023-02-28T08:31:56;10.60;;;4.57;;
46719;SDS011;32452;51.382;-0.002;2023-02-28T08:34:42;9.45;;;4.45;;
46719;SDS011;32452;51.382;-0.002;2023-02-28T08:37:27;12.50;;;4.82;;
46719;SDS011;32452;51.382;-0.002;2023-02-28T08:40:13;7.78;;;3.83;;
46719;SDS011;32452;51.382;-0.002;2023-02-28T08:43:02;11.10;;;4.15;;
46719;SDS011;32452;51.382;-0.002;2023-02-28T08:45:51;9.70;;;3.97;;
46719;SDS011;32452;51.382;-0.002;2023-02-28T08:48:37;10.02;;;3.70;;
46719;SDS011;32452;51.382;-0.002;2023-02-28T08:51:25;10.82;;;4.22;;
46719;SDS011;32452;51.382;-0.002;2023-02-28T08:54:12;7.05;;;3.42;;
46719;SDS011;32452;51.382;-0.002;2023-02-28T08:56:57;9.25;;;3.55;;
46719;SDS011;32452;51.382;-0.002;2023-02-28T08:59:43;8.20;;;3.75;;
46719;SDS011;32452;51.382;-0.002;2023-02-28T09:02:28;8.80;;;3.50;;
46719;SDS011;32452;51.382;-0.002;2023-02-28T09:05:14;5.93;;;2.83;;
46719;SDS011;32452;51.382;-0.002;2023-02-28T09:07:59;7.38;;;3.22;;
46719;SDS011;32452;51.382;-0.002;2023-02-28T09:10:45;6.78;;;3.25;;
46719;SDS011;32452;51.382;-0.002;2023-02-28T09:13:31;8.07;;;3.10;;
46719;SDS011;32452;51.382;-0.002;2023-02-28T09:16:17;4.65;;;2.60;;
46719;SDS011;32452;51.382;-0.002;2023-02-28T09:19:02;6.82;;;2.30;;
46719;SDS011;32452;51.382;-0.002;2023-02-28T09:21:48;4.13;;;2.10;;
46719;SDS011;32452;51.382;-0.002;2023-02-28T09:24:33;5.93;;;2.20;;
46719;SDS011;32452;51.382;-0.002;2023-02-28T09:27:21;4.85;;;2.28;;
46719;SDS011;32452;51.382;-0.002;2023-02-28T09:30:08;5.65;;;2.55;;
46719;SDS011;32452;51.382;-0.002;2023-02-28T09:32:54;4.25;;;2.10;;
46719;SDS011;32452;51.382;-0.002;2023-02-28T09:35:39;5.78;;;2.20;;
46719;SDS011;32452;51.382;-0.002;2023-02-28T09:38:25;4.70;;;2.20;;
46719;SDS011;32452;51.382;-0.002;2023-02-28T09:41:14;7.70;;;2.30;;
46719;SDS011;32452;51.382;-0.002;2023-02-28T09:44:02;3.58;;;1.92;;
46719;SDS011;32452;51.382;-0.002;2023-02-28T09:46:49;7.70;;;2.83;;
46719;SDS011;32452;51.382;-0.002;2023-02-28T09:49:42;3.28;;;1.67;;
46719;SDS011;32452;51.382;-0.002;2023-02-28T09:52:31;6.10;;;1.80;;
46719;SDS011;32452;51.382;-0.002;2023-02-28T09:58:05;6.95;;;3.00;;
46719;SDS011;32452;51.382;-0.002;2023-02-28T10:04:31;10.93;;;2.33;;
46719;SDS011;32452;51.382;-0.002;2023-02-28T10:10:30;7.32;;;2.92;;
46719;SDS011;32452;51.382;-0.002;2023-02-28T10:16:12;10.02;;;3.30;;
46719;SDS011;32452;51.382;-0.002;2023-02-28T10:22:17;7.90;;;3.47;;
46719;SDS011;32452;51.382;-0.002;2023-02-28T10:25:16;8.52;;;3.50;;
46719;SDS011;32452;51.382;-0.002;2023-02-28T10:28:14;8.68;;;3.20;;
46719;SDS011;32452;51.382;-0.002;2023-02-28T10:31:03;11.30;;;4.35;;
46719;SDS011;32452;51.382;-0.002;2023-02-28T10:33:49;7.80;;;3.45;;
46719;SDS011;32452;51.382;-0.002;2023-02-28T10:36:35;5.65;;;3.28;;
46719;SDS011;32452;51.382;-0.002;2023-02-28T10:39:38;10.02;;;3.30;;
46719;SDS011;32452;51.382;-0.002;2023-02-28T10:42:28;10.63;;;3.50;;
46719;SDS011;32452;51.382;-0.002;2023-02-28T10:45:15;7.15;;;3.03;;
46719;SDS011;32452;51.382;-0.002;2023-02-28T10:51:00;5.18;;;3.20;;
46719;SDS011;32452;51.382;-0.002;2023-02-28T10:53:49;14.77;;;3.05;;
46719;SDS011;32452;51.382;-0.002;2023-02-28T10:57:04;5.22;;;1.98;;
46719;SDS011;32452;51.382;-0.002;2023-02-28T10:59:52;8.25;;;1.90;;
46719;SDS011;32452;51.382;-0.002;2023-02-28T11:02:58;6.70;;;2.13;;
46719;SDS011;32452;51.382;-0.002;2023-02-28T11:05:44;2.95;;;1.63;;
46719;SDS011;32452;51.382;-0.002;2023-02-28T11:08:31;6.47;;;1.75;;
46719;SDS011;32452;51.382;-0.002;2023-02-28T11:11:17;4.07;;;1.73;;
46719;SDS011;32452;51.382;-0.002;2023-02-28T11:14:04;4.85;;;1.67;;
46719;SDS011;32452;51.382;-0.002;2023-02-28T11:16:53;6.93;;;1.40;;
46719;SDS011;32452;51.382;-0.002;2023-02-28T11:19:41;8.32;;;3.58;;
46719;SDS011;32452;51.382;-0.002;2023-02-28T11:22:32;5.28;;;2.17;;
46719;SDS011;32452;51.382;-0.002;2023-02-28T11:25:24;1.92;;;1.30;;
46719;SDS011;32452;51.382;-0.002;2023-02-28T11:31:18;3.78;;;1.83;;
46719;SDS011;32452;51.382;-0.002;2023-02-28T11:34:22;5.18;;;1.67;;
46719;SDS011;32452;51.382;-0.002;2023-02-28T11:37:18;5.18;;;2.25;;
46719;SDS011;32452;51.382;-0.002;2023-02-28T11:40:08;7.15;;;2.10;;
46719;SDS011;32452;51.382;-0.002;2023-02-28T11:52:30;8.95;;;3.00;;
46719;SDS011;32452;51.382;-0.002;2023-02-28T11:55:36;6.43;;;2.30;;
46719;SDS011;32452;51.382;-0.002;2023-02-28T12:07:18;8.10;;;3.05;;
46719;SDS011;32452;51.382;-0.002;2023-02-28T12:26:40;6.90;;;2.10;;
46719;SDS011;32452;51.382;-0.002;2023-02-28T12:29:28;6.88;;;2.78;;
46719;SDS011;32452;51.382;-0.002;2023-02-28T12:32:31;8.13;;;3.05;;
46719;SDS011;32452;51.382;-0.002;2023-02-28T12:35:33;9.75;;;3.10;;
46719;SDS011;32452;51.382;-0.002;2023-02-28T12:44:37;6.90;;;3.05;;
46719;SDS011;32452;51.382;-0.002;2023-02-28T12:47:29;5.55;;;2.90;;
46719;SDS011;32452;51.382;-0.002;2023-02-28T12:50:15;4.72;;;2.80;;
46719;SDS011;32452;51.382;-0.002;2023-02-28T12:56:09;5.47;;;2.90;;
46719;SDS011;32452;51.382;-0.002;2023-02-28T13:11:50;5.13;;;2.58;;
46719;SDS011;32452;51.382;-0.002;2023-02-28T13:14:37;7.32;;;2.42;;
46719;SDS011;32452;51.382;-0.002;2023-02-28T13:17:23;7.32;;;2.83;;
46719;SDS011;32452;51.382;-0.002;2023-02-28T13:20:15;6.28;;;3.13;;
46719;SDS011;32452;51.382;-0.002;2023-02-28T13:23:35;6.10;;;2.83;;
46719;SDS011;32452;51.382;-0.002;2023-02-28T13:29:27;5.80;;;2.55;;
46719;SDS011;32452;51.382;-0.002;2023-02-28T13:35:12;7.50;;;3.28;;
46719;SDS011;32452;51.382;-0.002;2023-02-28T13:38:09;4.85;;;2.53;;
46719;SDS011;32452;51.382;-0.002;2023-02-28T13:44:16;7.65;;;2.80;;
46719;SDS011;32452;51.382;-0.002;2023-02-28T13:47:22;4.63;;;2.40;;
46719;SDS011;32452;51.382;-0.002;2023-02-28T13:56:25;6.93;;;3.15;;
46719;SDS011;32452;51.382;-0.002;2023-02-28T13:59:31;5.85;;;2.53;;
46719;SDS011;32452;51.382;-0.002;2023-02-28T14:05:28;6.13;;;2.55;;
46719;SDS011;32452;51.382;-0.002;2023-02-28T14:08:18;5.60;;;2.30;;
46719;SDS011;32452;51.382;-0.002;2023-02-28T14:11:09;5.20;;;2.20;;
46719;SDS011;32452;51.382;-0.002;2023-02-28T14:17:38;3.92;;;2.05;;
46719;SDS011;32452;51.382;-0.002;2023-02-28T14:20:27;5.88;;;2.13;;
46719;SDS011;32452;51.382;-0.002;2023-02-28T14:38:45;2.63;;;1.50;;
46719;SDS011;32452;51.382;-0.002;2023-02-28T14:41:40;5.35;;;1.65;;
46719;SDS011;32452;51.382;-0.002;2023-02-28T14:44:27;3.97;;;1.80;;
46719;SDS011;32452;51.382;-0.002;2023-02-28T14:47:14;3.92;;;1.50;;
46719;SDS011;32452;51.382;-0.002;2023-02-28T14:50:01;4.88;;;1.63;;
46719;SDS011;32452;51.382;-0.002;2023-02-28T14:52:52;3.00;;;1.88;;
46719;SDS011;32452;51.382;-0.002;2023-02-28T14:55:43;4.93;;;1.40;;
46719;SDS011;32452;51.382;-0.002;2023-02-28T14:58:31;4.00;;;2.50;;
46719;SDS011;32452;51.382;-0.002;2023-02-28T15:01:19;5.20;;;2.10;;
46719;SDS011;32452;51.382;-0.002;2023-02-28T15:04:12;4.75;;;1.70;;
46719;SDS011;32452;51.382;-0.002;2023-02-28T15:07:15;4.45;;;1.88;;
46719;SDS011;32452;51.382;-0.002;2023-02-28T15:13:12;4.28;;;1.60;;
46719;SDS011;32452;51.382;-0.002;2023-02-28T15:16:01;3.47;;;1.63;;
46719;SDS011;32452;51.382;-0.002;2023-02-28T15:19:36;4.47;;;1.35;;
46719;SDS011;32452;51.382;-0.002;2023-02-28T15:22:06;7.53;;;1.77;;
46719;SDS011;32452;51.382;-0.002;2023-02-28T15:24:57;4.93;;;1.85;;
46719;SDS011;32452;51.382;-0.002;2023-02-28T15:27:45;3.97;;;1.55;;
46719;SDS011;32452;51.382;-0.002;2023-02-28T15:30:34;4.03;;;1.50;;
46719;SDS011;32452;51.382;-0.002;2023-02-28T15:33:22;4.00;;;1.58;;
46719;SDS011;32452;51.382;-0.002;2023-02-28T15:36:16;2.17;;;1.23;;
46719;SDS011;32452;51.382;-0.002;2023-02-28T15:39:22;5.40;;;1.50;;
46719;SDS011;32452;51.382;-0.002;2023-02-28T15:42:17;4.10;;;1.75;;
46719;SDS011;32452;51.382;-0.002;2023-02-28T15:45:05;4.53;;;1.73;;
46719;SDS011;32452;51.382;-0.002;2023-02-28T15:48:21;2.95;;;1.48;;
46719;SDS011;32452;51.382;-0.002;2023-02-28T15:54:32;4.63;;;1.60;;
46719;SDS011;32452;51.382;-0.002;2023-02-28T15:57:21;4.95;;;1.77;;
46719;SDS011;32452;51.382;-0.002;2023-02-28T16:00:11;2.97;;;2.67;;
46719;SDS011;32452;51.382;-0.002;2023-02-28T16:02:58;3.65;;;1.90;;
46719;SDS011;32452;51.382;-0.002;2023-02-28T16:05:45;3.65;;;1.73;;
46719;SDS011;32452;51.382;-0.002;2023-02-28T16:08:30;4.95;;;1.63;;
46719;SDS011;32452;51.382;-0.002;2023-02-28T16:11:16;4.43;;;1.40;;
46719;SDS011;32452;51.382;-0.002;2023-02-28T16:14:01;3.35;;;1.77;;
46719;SDS011;32452;51.382;-0.002;2023-02-28T16:16:49;5.43;;;1.73;;
46719;SDS011;32452;51.382;-0.002;2023-02-28T16:19:36;2.70;;;1.50;;
46719;SDS011;32452;51.382;-0.002;2023-02-28T16:22:22;4.13;;;1.80;;
46719;SDS011;32452;51.382;-0.002;2023-02-28T16:25:12;3.88;;;1.60;;
46719;SDS011;32452;51.382;-0.002;2023-02-28T16:30:48;3.53;;;1.77;;
46719;SDS011;32452;51.382;-0.002;2023-02-28T16:33:36;5.40;;;1.63;;
46719;SDS011;32452;51.382;-0.002;2023-02-28T16:36:23;4.70;;;2.38;;
46719;SDS011;32452;51.382;-0.002;2023-02-28T16:39:12;3.15;;;1.85;;
46719;SDS011;32452;51.382;-0.002;2023-02-28T16:41:58;4.75;;;1.85;;
46719;SDS011;32452;51.382;-0.002;2023-02-28T16:44:43;2.97;;;1.70;;
46719;SDS011;32452;51.382;-0.002;2023-02-28T16:47:30;4.93;;;1.92;;
46719;SDS011;32452;51.382;-0.002;2023-02-28T16:50:19;2.78;;;1.70;;
46719;SDS011;32452;51.382;-0.002;2023-02-28T16:53:06;4.60;;;1.73;;
46719;SDS011;32452;51.382;-0.002;2023-02-28T16:55:51;2.95;;;1.70;;
46719;SDS011;32452;51.382;-0.002;2023-02-28T16:58:37;6.75;;;1.77;;
46719;SDS011;32452;51.382;-0.002;2023-02-28T17:04:48;4.72;;;1.73;;
46719;SDS011;32452;51.382;-0.002;2023-02-28T17:07:34;4.50;;;2.17;;
46719;SDS011;32452;51.382;-0.002;2023-02-28T17:10:22;13.60;;;2.20;;
46719;SDS011;32452;51.382;-0.002;2023-02-28T17:13:29;3.92;;;2.00;;
46719;SDS011;32452;51.382;-0.002;2023-02-28T17:16:32;5.57;;;2.00;;
46719;SDS011;32452;51.382;-0.002;2023-02-28T17:19:20;4.13;;;2.05;;
46719;SDS011;32452;51.382;-0.002;2023-02-28T17:22:07;5.85;;;2.28;;
46719;SDS011;32452;51.382;-0.002;2023-02-28T17:24:53;4.70;;;1.73;;
46719;SDS011;32452;51.382;-0.002;2023-02-28T17:27:42;3.60;;;1.92;;
46719;SDS011;32452;51.382;-0.002;2023-02-28T17:30:28;4.72;;;2.67;;
46719;SDS011;32452;51.382;-0.002;2023-02-28T17:33:14;2.30;;;1.30;;
46719;SDS011;32452;51.382;-0.002;2023-02-28T17:36:00;4.38;;;1.65;;
46719;SDS011;32452;51.382;-0.002;2023-02-28T17:38:46;3.33;;;1.77;;
46719;SDS011;32452;51.382;-0.002;2023-02-28T17:41:32;6.82;;;1.90;;
46719;SDS011;32452;51.382;-0.002;2023-02-28T17:44:18;2.08;;;1.60;;
46719;SDS011;32452;51.382;-0.002;2023-02-28T17:47:04;2.42;;;1.42;;
46719;SDS011;32452;51.382;-0.002;2023-02-28T17:49:50;4.20;;;2.47;;
46719;SDS011;32452;51.382;-0.002;2023-02-28T17:52:36;3.78;;;1.98;;
46719;SDS011;32452;51.382;-0.002;2023-02-28T17:55:21;5.45;;;1.58;;
46719;SDS011;32452;51.382;-0.002;2023-02-28T17:58:08;3.70;;;1.95;;
46719;SDS011;32452;51.382;-0.002;2023-02-28T18:00:56;5.32;;;1.85;;
46719;SDS011;32452;51.382;-0.002;2023-02-28T18:03:42;2.03;;;1.50;;
46719;SDS011;32452;51.382;-0.002;2023-02-28T18:06:28;4.10;;;1.77;;
46719;SDS011;32452;51.382;-0.002;2023-02-28T18:09:31;6.00;;;2.10;;
46719;SDS011;32452;51.382;-0.002;2023-02-28T18:12:16;5.03;;;1.77;;
46719;SDS011;32452;51.382;-0.002;2023-02-28T18:15:02;3.40;;;1.42;;
46719;SDS011;32452;51.382;-0.002;2023-02-28T18:17:48;4.47;;;2.17;;
46719;SDS011;32452;51.382;-0.002;2023-02-28T18:20:35;3.92;;;2.00;;
46719;SDS011;32452;51.382;-0.002;2023-02-28T18:23:21;3.65;;;2.25;;
46719;SDS011;32452;51.382;-0.002;2023-02-28T18:26:07;5.25;;;2.03;;
46719;SDS011;32452;51.382;-0.002;2023-02-28T18:28:53;3.97;;;2.10;;
46719;SDS011;32452;51.382;-0.002;2023-02-28T18:31:38;3.97;;;1.95;;
46719;SDS011;32452;51.382;-0.002;2023-02-28T18:34:24;7.22;;;2.00;;
46719;SDS011;32452;51.382;-0.002;2023-02-28T18:37:10;3.13;;;1.77;;
46719;SDS011;32452;51.382;-0.002;2023-02-28T18:39:56;3.35;;;1.77;;
46719;SDS011;32452;51.382;-0.002;2023-02-28T18:42:41;5.28;;;1.92;;
46719;SDS011;32452;51.382;-0.002;2023-02-28T18:45:27;5.43;;;2.20;;
46719;SDS011;32452;51.382;-0.002;2023-02-28T18:48:15;6.07;;;2.58;;
46719;SDS011;32452;51.382;-0.002;2023-02-28T18:51:07;4.20;;;2.65;;
46719;SDS011;32452;51.382;-0.002;2023-02-28T18:53:54;5.40;;;2.65;;
46719;SDS011;32452;51.382;-0.002;2023-02-28T18:56:45;4.75;;;2.30;;
46719;SDS011;32452;51.382;-0.002;2023-02-28T18:59:32;5.53;;;2.45;;
46719;SDS011;32452;51.382;-0.002;2023-02-28T19:02:18;5.00;;;1.95;;
46719;SDS011;32452;51.382;-0.002;2023-02-28T19:05:04;2.35;;;1.60;;
46719;SDS011;32452;51.382;-0.002;2023-02-28T19:07:52;3.10;;;1.80;;
46719;SDS011;32452;51.382;-0.002;2023-02-28T19:10:40;2.72;;;1.55;;
46719;SDS011;32452;51.382;-0.002;2023-02-28T19:13:26;2.35;;;1.67;;
46719;SDS011;32452;51.382;-0.002;2023-02-28T19:16:13;3.30;;;1.80;;
46719;SDS011;32452;51.382;-0.002;2023-02-28T19:19:03;2.75;;;1.75;;
46719;SDS011;32452;51.382;-0.002;2023-02-28T19:21:48;8.25;;;3.70;;
46719;SDS011;32452;51.382;-0.002;2023-02-28T19:24:33;4.70;;;1.90;;
46719;SDS011;32452;51.382;-0.002;2023-02-28T19:27:19;4.03;;;1.92;;
46719;SDS011;32452;51.382;-0.002;2023-02-28T19:30:05;6.20;;;2.00;;